createdAt,value
2018-08-11T00:02:49.686Z,49.40
2018-08-11T00:06:14.185Z,49.40
2018-08-11T00:09:38.618Z,49.50
2018-08-11T00:13:03.083Z,51.50
2018-08-11T00:16:27.540Z,54.80
2018-08-11T00:19:51.982Z,57.40
2018-08-11T00:23:16.428Z,61.30
2018-08-11T00:26:40.916Z,64.20
2018-08-11T00:30:10.608Z,66.20
2018-08-11T00:33:35.074Z,68.50
2018-08-11T00:36:59.532Z,71.00
2018-08-11T00:40:24.027Z,72.80
2018-08-11T00:43:48.460Z,73.30
2018-08-11T00:47:12.893Z,74.70
2018-08-11T00:50:37.561Z,76.40
2018-08-11T00:54:02.087Z,82.80
2018-08-11T00:57:26.566Z,87.10
2018-08-11T01:00:51.065Z,90.70
2018-08-11T01:04:15.518Z,93.70
2018-08-11T01:07:40.557Z,94.80
2018-08-11T01:11:05.114Z,94.50
2018-08-11T01:14:29.566Z,95.20
2018-08-11T01:17:54.033Z,95.60
2018-08-11T01:21:18.502Z,96.00
2018-08-11T01:24:42.915Z,96.20
2018-08-11T01:28:07.434Z,96.20
2018-08-11T01:31:31.857Z,96.00
2018-08-11T01:34:56.325Z,97.10
2018-08-11T01:38:20.765Z,98.50
2018-08-11T01:41:45.216Z,98.10
2018-08-11T01:45:11.865Z,96.60
2018-08-11T01:48:36.365Z,97.30
2018-08-11T01:52:00.908Z,97.30
2018-08-11T01:55:25.336Z,96.90
2018-08-11T01:58:49.773Z,97.30
2018-08-11T02:02:14.292Z,97.70
2018-08-11T02:05:38.844Z,98.90
2018-08-11T02:09:03.398Z,98.60
2018-08-11T02:12:27.872Z,99.50
2018-08-11T02:15:52.383Z,99.10
2018-08-11T02:19:16.873Z,99.00
2018-08-11T02:22:42.051Z,99.90
2018-08-11T02:26:06.634Z,99.60
2018-08-11T02:29:31.173Z,99.60
2018-08-11T02:32:55.591Z,98.30
2018-08-11T02:36:20.041Z,99.40
2018-08-11T02:39:44.463Z,98.10
2018-08-11T02:43:08.921Z,98.50
2018-08-11T02:46:33.351Z,98.90
2018-08-11T02:49:57.798Z,98.40
2018-08-11T02:53:22.207Z,98.10
2018-08-11T02:56:46.587Z,98.50
2018-08-11T03:00:12.667Z,98.50
2018-08-11T03:03:37.078Z,98.20
2018-08-11T03:07:01.540Z,98.90
2018-08-11T03:10:26.042Z,99.00
2018-08-11T03:13:50.470Z,99.00
2018-08-11T03:17:21.102Z,98.60
2018-08-11T03:20:45.509Z,99.50
2018-08-11T03:24:10.314Z,98.60
2018-08-11T03:27:34.826Z,98.70
2018-08-11T03:30:59.267Z,98.50
2018-08-11T03:34:23.663Z,98.80
2018-08-11T03:37:48.075Z,99.00
2018-08-11T03:41:12.525Z,98.60
2018-08-11T03:44:36.926Z,98.80
2018-08-11T03:48:01.332Z,98.90
2018-08-11T03:51:25.791Z,98.80
2018-08-11T03:54:50.275Z,98.70
2018-08-11T03:58:14.742Z,98.80
2018-08-11T04:01:39.185Z,97.90
2018-08-11T04:05:03.634Z,97.40
2018-08-11T04:08:28.077Z,96.90
2018-08-11T04:11:52.548Z,96.80
2018-08-11T04:15:16.977Z,96.80
2018-08-11T04:18:41.395Z,96.90
2018-08-11T04:22:05.835Z,97.10
2018-08-11T04:25:30.236Z,97.40
2018-08-11T04:28:54.656Z,97.20
2018-08-11T04:32:19.091Z,97.50
2018-08-11T04:35:43.683Z,97.40
2018-08-11T04:39:09.745Z,97.70
2018-08-11T04:42:34.151Z,97.40
2018-08-11T04:45:58.586Z,97.60
2018-08-11T04:49:22.993Z,97.70
2018-08-11T04:52:47.408Z,97.60
2018-08-11T04:56:11.823Z,97.70
2018-08-11T04:59:42.883Z,98.10
2018-08-11T05:03:07.346Z,98.00
2018-08-11T05:06:31.809Z,98.20
2018-08-11T05:09:56.231Z,98.00
2018-08-11T05:13:20.629Z,97.90
2018-08-11T05:16:45.068Z,97.90
2018-08-11T05:20:09.520Z,98.00
2018-08-11T05:23:33.928Z,97.70
2018-08-11T05:26:58.335Z,97.70
2018-08-11T05:30:22.820Z,97.40
2018-08-11T05:33:47.364Z,97.40
2018-08-11T05:37:11.895Z,96.80
2018-08-11T05:40:36.369Z,96.90
2018-08-11T05:44:01.185Z,96.90
2018-08-11T05:47:25.688Z,97.10
2018-08-11T05:50:50.278Z,96.80
2018-08-11T05:54:14.748Z,97.10
2018-08-11T05:57:39.273Z,97.00
2018-08-11T06:01:03.762Z,97.20
2018-08-11T06:04:28.236Z,96.40
2018-08-11T06:07:52.751Z,96.00
2018-08-11T06:11:18.297Z,96.20
2018-08-11T06:14:44.894Z,95.90
2018-08-11T06:18:09.370Z,95.90
2018-08-11T06:21:34.318Z,96.00
2018-08-11T06:24:58.973Z,95.70
2018-08-11T06:28:24.612Z,95.60
2018-08-11T06:31:49.267Z,95.50
2018-08-11T06:35:14.777Z,95.10
2018-08-11T06:38:39.214Z,94.30
2018-08-11T06:42:03.637Z,94.20
2018-08-11T06:45:28.031Z,93.80
2018-08-11T06:48:52.435Z,93.30
2018-08-11T06:52:16.979Z,93.00
2018-08-11T06:55:42.169Z,92.80
2018-08-11T06:59:06.564Z,92.80
2018-08-11T07:02:30.977Z,92.30
2018-08-11T07:05:55.479Z,92.20
2018-08-11T07:09:20.081Z,91.90
2018-08-11T07:12:44.548Z,91.90
2018-08-11T07:16:09.324Z,91.20
2018-08-11T07:19:33.712Z,91.40
2018-08-11T07:22:58.106Z,90.10
2018-08-11T07:26:22.721Z,88.20
2018-08-11T07:29:47.100Z,90.10
2018-08-11T07:33:11.511Z,89.10
2018-08-11T07:36:36.038Z,85.10
2018-08-11T07:40:00.446Z,87.50
2018-08-11T07:43:24.931Z,85.10
2018-08-11T07:46:49.315Z,84.70
2018-08-11T07:50:13.746Z,80.60
2018-08-11T07:53:38.178Z,82.40
2018-08-11T07:57:02.596Z,80.90
2018-08-11T08:00:26.996Z,79.30
2018-08-11T08:03:51.578Z,77.60
2018-08-11T08:07:15.995Z,79.10
2018-08-11T08:10:40.439Z,76.20
2018-08-11T08:14:04.955Z,76.10
2018-08-11T08:17:29.422Z,75.70
2018-08-11T08:20:53.816Z,72.60
2018-08-11T08:24:18.289Z,70.90
2018-08-11T08:27:42.700Z,70.00
2018-08-11T08:31:07.156Z,69.30
2018-08-11T08:34:31.578Z,69.30
2018-08-11T08:37:55.956Z,70.70
2018-08-11T08:41:20.434Z,65.30
2018-08-11T08:44:44.915Z,67.10
2018-08-11T08:48:09.349Z,66.20
2018-08-11T08:51:33.742Z,63.80
2018-08-11T08:54:58.169Z,62.80
2018-08-11T08:58:22.563Z,62.30
2018-08-11T09:01:47.088Z,60.70
2018-08-11T09:05:11.529Z,61.70
2018-08-11T09:08:36.109Z,60.20
2018-08-11T09:12:00.631Z,60.80
2018-08-11T09:15:25.028Z,59.40
2018-08-11T09:18:49.429Z,59.80
2018-08-11T09:22:13.870Z,58.40
2018-08-11T09:25:38.268Z,57.10
2018-08-11T09:29:02.721Z,58.40
2018-08-11T09:32:27.247Z,58.70
2018-08-11T09:35:51.664Z,56.10
2018-08-11T09:39:16.096Z,56.00
2018-08-11T09:42:40.534Z,56.30
2018-08-11T09:46:04.943Z,55.40
2018-08-11T09:49:29.374Z,55.00
2018-08-11T09:52:53.819Z,55.70
2018-08-11T09:56:18.303Z,56.70
2018-08-11T09:59:42.751Z,56.10
2018-08-11T10:03:07.226Z,52.80
2018-08-11T10:06:31.632Z,53.20
2018-08-11T10:09:56.040Z,51.80
2018-08-11T10:13:20.464Z,50.50
2018-08-11T10:16:45.007Z,50.60
2018-08-11T10:20:09.439Z,49.80
2018-08-11T10:23:33.837Z,50.60
2018-08-11T10:26:58.302Z,50.50
2018-08-11T10:30:22.713Z,48.40
2018-08-11T10:33:47.412Z,46.40
2018-08-11T10:37:11.867Z,45.60
2018-08-11T10:40:36.303Z,45.00
2018-08-11T10:44:00.745Z,46.20
2018-08-11T10:47:25.164Z,45.60
2018-08-11T10:50:49.841Z,44.80
2018-08-11T10:54:14.276Z,45.90
2018-08-11T10:57:38.970Z,47.60
2018-08-11T11:01:03.437Z,46.30
2018-08-11T11:04:27.977Z,43.10
2018-08-11T11:07:52.406Z,42.00
2018-08-11T11:11:16.865Z,43.70
2018-08-11T11:14:41.302Z,42.60
2018-08-11T11:18:06.022Z,39.70
2018-08-11T11:21:30.456Z,40.20
2018-08-11T11:24:54.951Z,36.60
2018-08-11T11:28:19.422Z,34.60
2018-08-11T11:31:43.888Z,34.50
2018-08-11T11:35:08.366Z,34.80
2018-08-11T11:38:32.850Z,35.80
2018-08-11T11:41:57.330Z,36.10
2018-08-11T11:45:21.780Z,36.50
2018-08-11T11:48:46.239Z,37.40
2018-08-11T11:52:10.677Z,38.90
2018-08-11T11:55:35.148Z,33.10
2018-08-11T11:58:59.528Z,35.10
2018-08-11T12:02:23.967Z,33.20
2018-08-11T12:05:48.518Z,33.90
2018-08-11T12:09:12.993Z,30.10
2018-08-11T12:12:37.416Z,30.50
2018-08-11T12:16:01.937Z,31.40
2018-08-11T12:19:26.474Z,34.20
2018-08-11T12:22:50.945Z,31.90
2018-08-11T12:26:15.491Z,34.40
2018-08-11T12:29:40.019Z,34.50
2018-08-11T12:33:04.471Z,35.00
2018-08-11T12:36:28.975Z,35.50
2018-08-11T12:39:53.488Z,32.70
2018-08-11T12:43:17.959Z,31.90
2018-08-11T12:46:42.585Z,31.20
2018-08-11T12:50:07.029Z,29.10
2018-08-11T12:53:31.440Z,27.90
2018-08-11T12:56:55.900Z,29.80
2018-08-11T13:00:21.049Z,29.00
2018-08-11T13:03:46.527Z,27.80
2018-08-11T13:07:11.277Z,27.60
2018-08-11T13:10:35.720Z,28.00
2018-08-11T13:14:00.305Z,29.80
2018-08-11T13:17:24.905Z,29.30
2018-08-11T13:20:49.473Z,27.90
2018-08-11T13:24:13.937Z,26.70
2018-08-11T13:27:38.427Z,27.00
2018-08-11T13:31:02.976Z,26.80
2018-08-11T13:34:27.450Z,25.50
2018-08-11T13:37:51.886Z,24.90
2018-08-11T13:41:16.327Z,25.00
2018-08-11T13:44:40.930Z,23.30
2018-08-11T13:48:05.643Z,23.50
2018-08-11T13:51:30.047Z,24.00
2018-08-11T13:54:54.451Z,26.50
2018-08-11T13:58:19.077Z,27.10
2018-08-11T14:01:43.569Z,28.70
2018-08-11T14:05:08.048Z,30.30
2018-08-11T14:08:32.542Z,31.10
2018-08-11T14:11:57.022Z,30.20
2018-08-11T14:15:21.441Z,28.10
2018-08-11T14:18:45.857Z,27.80
2018-08-11T14:22:10.354Z,30.00
2018-08-11T14:25:34.755Z,25.10
2018-08-11T14:28:59.275Z,24.80
2018-08-11T14:32:23.787Z,23.90
2018-08-11T14:35:48.225Z,23.30
2018-08-11T14:39:12.778Z,22.20
2018-08-11T14:42:37.251Z,21.50
2018-08-11T14:46:01.740Z,20.80
2018-08-11T14:49:26.198Z,21.30
2018-08-11T14:52:50.638Z,19.90
2018-08-11T14:56:15.114Z,19.80
2018-08-11T14:59:39.590Z,20.70
2018-08-11T15:03:05.212Z,24.70
2018-08-11T15:06:29.731Z,26.80
2018-08-11T15:09:54.260Z,27.50
2018-08-11T15:13:18.660Z,29.00
2018-08-11T15:16:43.134Z,25.10
2018-08-11T15:20:08.384Z,23.90
2018-08-11T15:23:32.842Z,21.20
2018-08-11T15:26:57.335Z,19.40
2018-08-11T15:30:21.766Z,18.90
2018-08-11T15:33:46.179Z,19.20
2018-08-11T15:37:10.592Z,19.30
2018-08-11T15:40:35.007Z,19.00
2018-08-11T15:43:59.459Z,18.70
2018-08-11T15:47:23.895Z,20.90
2018-08-11T15:50:48.349Z,21.30
2018-08-11T15:54:12.788Z,21.20
2018-08-11T15:57:37.228Z,21.80
2018-08-11T16:01:01.636Z,23.00
2018-08-11T16:04:26.079Z,25.60
2018-08-11T16:07:50.456Z,29.20
2018-08-11T16:11:14.861Z,28.40
2018-08-11T16:14:39.284Z,26.30
2018-08-11T16:18:03.720Z,25.80
2018-08-11T16:21:28.154Z,27.70
2018-08-11T16:24:52.595Z,24.80
2018-08-11T16:28:17.099Z,24.50
2018-08-11T16:31:41.603Z,26.60
2018-08-11T16:35:06.299Z,27.50
2018-08-11T16:38:30.832Z,26.50
2018-08-11T16:41:55.381Z,24.60
2018-08-11T16:45:19.879Z,22.90
2018-08-11T16:48:44.340Z,23.10
2018-08-11T16:52:08.954Z,24.70
2018-08-11T16:55:33.445Z,25.80
2018-08-11T16:58:57.967Z,27.10
2018-08-11T17:02:22.420Z,28.00
2018-08-11T17:05:46.951Z,29.50
2018-08-11T17:09:12.484Z,29.20
2018-08-11T17:12:37.272Z,30.80
2018-08-11T17:16:01.694Z,30.00
2018-08-11T17:19:26.226Z,30.10
2018-08-11T17:22:50.693Z,32.30
2018-08-11T17:26:15.138Z,34.00
2018-08-11T17:29:39.615Z,33.10
2018-08-11T17:33:04.037Z,34.10
2018-08-11T17:36:28.522Z,34.80
2018-08-11T17:39:53.029Z,34.90
2018-08-11T17:43:17.554Z,35.00
2018-08-11T17:46:42.103Z,37.50
2018-08-11T17:50:07.624Z,38.00
2018-08-11T17:53:32.142Z,35.40
2018-08-11T17:56:56.686Z,35.70
2018-08-11T18:00:21.123Z,36.20
2018-08-11T18:03:45.623Z,37.30
2018-08-11T18:07:10.053Z,38.40
2018-08-11T18:10:34.527Z,38.30
2018-08-11T18:13:58.932Z,38.60
2018-08-11T18:17:23.435Z,37.60
2018-08-11T18:20:47.839Z,39.40
2018-08-11T18:24:12.231Z,39.20
2018-08-11T18:27:36.893Z,41.70
2018-08-11T18:31:01.280Z,40.40
2018-08-11T18:34:25.722Z,40.90
2018-08-11T18:37:50.139Z,44.60
2018-08-11T18:41:14.538Z,45.50
2018-08-11T18:44:38.928Z,45.70
2018-08-11T18:48:03.342Z,46.90
2018-08-11T18:51:27.733Z,47.60
2018-08-11T18:54:52.173Z,48.70
2018-08-11T18:58:17.480Z,48.60
2018-08-11T19:01:41.914Z,49.40
2018-08-11T19:05:06.482Z,49.80
2018-08-11T19:08:30.910Z,51.00
2018-08-11T19:11:55.336Z,51.30
2018-08-11T19:15:19.762Z,51.80
2018-08-11T19:18:44.198Z,53.10
2018-08-11T19:22:08.750Z,53.80
2018-08-11T19:25:33.305Z,53.40
2018-08-11T19:28:57.611Z,54.10
2018-08-11T19:32:22.048Z,54.60
2018-08-11T19:35:46.607Z,55.40
2018-08-11T19:39:12.334Z,55.70
2018-08-11T19:42:36.784Z,55.70
2018-08-11T19:46:01.247Z,56.80
2018-08-11T19:49:25.669Z,58.00
2018-08-11T19:52:50.129Z,58.80
2018-08-11T19:56:14.619Z,59.50
2018-08-11T19:59:39.121Z,59.80
2018-08-11T20:03:03.583Z,59.60
2018-08-11T20:06:28.054Z,59.80
2018-08-11T20:09:52.540Z,59.40
2018-08-11T20:13:16.952Z,59.10
2018-08-11T20:16:41.386Z,59.20
2018-08-11T20:20:07.305Z,59.20
2018-08-11T20:23:31.785Z,58.80
2018-08-11T20:26:56.236Z,59.30
2018-08-11T20:30:20.708Z,60.70
2018-08-11T20:33:45.115Z,59.80
2018-08-11T20:37:10.287Z,60.30
2018-08-11T20:40:34.714Z,60.50
2018-08-11T20:43:59.227Z,61.70
2018-08-11T20:47:23.671Z,61.50
2018-08-11T20:50:48.040Z,61.80
2018-08-11T20:54:12.463Z,62.10
2018-08-11T20:57:36.889Z,61.70
2018-08-11T21:01:01.392Z,62.30
2018-08-11T21:04:25.849Z,62.70
2018-08-11T21:07:50.313Z,62.40
2018-08-11T21:11:14.799Z,63.00
2018-08-11T21:14:39.254Z,62.80
2018-08-11T21:18:03.672Z,64.20
2018-08-11T21:21:28.139Z,64.60
2018-08-11T21:24:52.587Z,65.40
2018-08-11T21:28:17.016Z,65.60
2018-08-11T21:31:41.562Z,66.60
2018-08-11T21:35:06.442Z,66.80
2018-08-11T21:38:30.899Z,67.30
2018-08-11T21:41:55.476Z,68.70
2018-08-11T21:45:19.988Z,69.30
2018-08-11T21:48:44.438Z,68.80
2018-08-11T21:52:08.962Z,69.70
2018-08-11T21:55:33.492Z,69.20
2018-08-11T21:58:57.945Z,69.10
2018-08-11T22:02:22.416Z,68.80
2018-08-11T22:05:46.825Z,69.00
2018-08-11T22:09:13.435Z,69.70
2018-08-11T22:12:37.911Z,70.20
2018-08-11T22:16:04.077Z,70.90
2018-08-11T22:19:28.576Z,71.40
2018-08-11T22:22:53.037Z,72.70
2018-08-11T22:26:17.685Z,73.60
2018-08-11T22:29:42.246Z,73.70
2018-08-11T22:33:06.795Z,74.00
2018-08-11T22:36:31.333Z,74.80
2018-08-11T22:39:55.877Z,74.90
2018-08-11T22:43:20.580Z,74.60
2018-08-11T22:46:45.077Z,74.90
2018-08-11T22:50:12.320Z,75.40
2018-08-11T22:53:36.782Z,76.30
2018-08-11T22:57:01.287Z,77.60
2018-08-11T23:00:25.801Z,77.20
2018-08-11T23:03:50.284Z,78.10
2018-08-11T23:07:14.772Z,78.40
2018-08-11T23:10:39.206Z,78.80
2018-08-11T23:14:03.806Z,78.70
2018-08-11T23:17:28.335Z,79.20
2018-08-11T23:20:52.828Z,79.30
2018-08-11T23:24:17.304Z,79.40
2018-08-11T23:27:41.821Z,78.90
2018-08-11T23:31:06.238Z,79.40
2018-08-11T23:34:30.756Z,79.20
2018-08-11T23:37:55.224Z,79.80
2018-08-11T23:41:19.692Z,79.30
2018-08-11T23:44:44.197Z,79.50
2018-08-11T23:48:08.750Z,78.90
2018-08-11T23:51:33.220Z,79.70
2018-08-11T23:54:57.693Z,80.20
2018-08-11T23:58:22.170Z,80.50
